sensor_id;sensor_type;location;lat;lon;timestamp;P1;durP1;ratioP1;P2;durP2;ratioP2
37305;SDS011;23193;42.656;21.170;2024-01-25T00:01:59;269.42;;;109.47;;
37305;SDS011;23193;42.656;21.170;2024-01-25T00:04:27;258.30;;;109.97;;
37305;SDS011;23193;42.656;21.170;2024-01-25T00:06:54;254.38;;;109.00;;
37305;SDS011;23193;42.656;21.170;2024-01-25T00:09:21;263.25;;;111.80;;
37305;SDS011;23193;42.656;21.170;2024-01-25T00:11:48;261.38;;;112.60;;
37305;SDS011;23193;42.656;21.170;2024-01-25T00:14:16;271.65;;;111.78;;
37305;SDS011;23193;42.656;21.170;2024-01-25T00:16:43;225.68;;;102.55;;
37305;SDS011;23193;42.656;21.170;2024-01-25T00:19:10;257.23;;;111.18;;
37305;SDS011;23193;42.656;21.170;2024-01-25T00:21:41;240.02;;;98.93;;
37305;SDS011;23193;42.656;21.170;2024-01-25T00:24:11;176.20;;;78.65;;
37305;SDS011;23193;42.656;21.170;2024-01-25T00:26:38;196.07;;;79.22;;
37305;SDS011;23193;42.656;21.170;2024-01-25T00:29:06;168.30;;;69.20;;
37305;SDS011;23193;42.656;21.170;2024-01-25T00:31:33;182.40;;;77.20;;
37305;SDS011;23193;42.656;21.170;2024-01-25T00:34:00;185.98;;;75.53;;
37305;SDS011;23193;42.656;21.170;2024-01-25T00:36:28;176.95;;;69.82;;
37305;SDS011;23193;42.656;21.170;2024-01-25T00:38:55;169.65;;;64.32;;
37305;SDS011;23193;42.656;21.170;2024-01-25T00:41:22;138.35;;;45.90;;
37305;SDS011;23193;42.656;21.170;2024-01-25T00:43:49;116.68;;;48.35;;
37305;SDS011;23193;42.656;21.170;2024-01-25T00:46:16;125.90;;;51.85;;
37305;SDS011;23193;42.656;21.170;2024-01-25T00:48:44;133.77;;;53.20;;
37305;SDS011;23193;42.656;21.170;2024-01-25T00:51:14;133.63;;;55.17;;
37305;SDS011;23193;42.656;21.170;2024-01-25T00:53:41;146.45;;;55.53;;
37305;SDS011;23193;42.656;21.170;2024-01-25T00:56:09;154.18;;;54.35;;
37305;SDS011;23193;42.656;21.170;2024-01-25T00:58:36;174.13;;;69.28;;
37305;SDS011;23193;42.656;21.170;2024-01-25T01:01:03;146.25;;;57.58;;
37305;SDS011;23193;42.656;21.170;2024-01-25T01:03:31;153.52;;;59.47;;
37305;SDS011;23193;42.656;21.170;2024-01-25T01:05:59;139.80;;;60.25;;
37305;SDS011;23193;42.656;21.170;2024-01-25T01:08:27;155.85;;;59.92;;
37305;SDS011;23193;42.656;21.170;2024-01-25T01:10:54;141.70;;;58.22;;
37305;SDS011;23193;42.656;21.170;2024-01-25T01:13:22;151.60;;;62.33;;
37305;SDS011;23193;42.656;21.170;2024-01-25T01:15:50;138.63;;;60.30;;
37305;SDS011;23193;42.656;21.170;2024-01-25T01:18:17;125.43;;;50.90;;
37305;SDS011;23193;42.656;21.170;2024-01-25T01:20:44;118.75;;;46.95;;
37305;SDS011;23193;42.656;21.170;2024-01-25T01:23:11;110.45;;;48.30;;
37305;SDS011;23193;42.656;21.170;2024-01-25T01:25:38;133.10;;;53.30;;
37305;SDS011;23193;42.656;21.170;2024-01-25T01:28:05;145.25;;;60.13;;
37305;SDS011;23193;42.656;21.170;2024-01-25T01:30:32;127.07;;;57.53;;
37305;SDS011;23193;42.656;21.170;2024-01-25T01:33:00;149.02;;;59.88;;
37305;SDS011;23193;42.656;21.170;2024-01-25T01:35:27;140.23;;;61.75;;
37305;SDS011;23193;42.656;21.170;2024-01-25T01:37:54;147.15;;;58.05;;
37305;SDS011;23193;42.656;21.170;2024-01-25T01:40:21;120.97;;;52.78;;
37305;SDS011;23193;42.656;21.170;2024-01-25T01:42:48;124.60;;;51.50;;
37305;SDS011;23193;42.656;21.170;2024-01-25T01:45:16;125.15;;;51.22;;
37305;SDS011;23193;42.656;21.170;2024-01-25T01:47:43;113.70;;;50.17;;
37305;SDS011;23193;42.656;21.170;2024-01-25T01:50:10;107.00;;;43.92;;
37305;SDS011;23193;42.656;21.170;2024-01-25T01:52:38;93.38;;;40.75;;
37305;SDS011;23193;42.656;21.170;2024-01-25T01:55:05;90.90;;;41.58;;
37305;SDS011;23193;42.656;21.170;2024-01-25T01:57:33;86.68;;;37.08;;
37305;SDS011;23193;42.656;21.170;2024-01-25T02:00:01;83.03;;;37.42;;
37305;SDS011;23193;42.656;21.170;2024-01-25T02:02:37;98.28;;;40.58;;
37305;SDS011;23193;42.656;21.170;2024-01-25T02:05:04;108.13;;;44.10;;
37305;SDS011;23193;42.656;21.170;2024-01-25T02:07:32;117.50;;;48.55;;
37305;SDS011;23193;42.656;21.170;2024-01-25T02:09:59;141.82;;;53.13;;
37305;SDS011;23193;42.656;21.170;2024-01-25T02:12:26;121.60;;;54.85;;
37305;SDS011;23193;42.656;21.170;2024-01-25T02:14:53;121.43;;;55.15;;
37305;SDS011;23193;42.656;21.170;2024-01-25T02:17:20;128.80;;;54.70;;
37305;SDS011;23193;42.656;21.170;2024-01-25T02:19:47;115.95;;;52.28;;
37305;SDS011;23193;42.656;21.170;2024-01-25T02:22:16;138.40;;;57.17;;
37305;SDS011;23193;42.656;21.170;2024-01-25T02:24:44;135.30;;;60.58;;
37305;SDS011;23193;42.656;21.170;2024-01-25T02:27:12;148.65;;;63.33;;
37305;SDS011;23193;42.656;21.170;2024-01-25T02:29:39;157.40;;;66.07;;
37305;SDS011;23193;42.656;21.170;2024-01-25T02:32:06;165.02;;;66.68;;
37305;SDS011;23193;42.656;21.170;2024-01-25T02:34:33;161.65;;;66.25;;
37305;SDS011;23193;42.656;21.170;2024-01-25T02:37:00;160.20;;;70.18;;
37305;SDS011;23193;42.656;21.170;2024-01-25T02:39:27;152.63;;;64.50;;
37305;SDS011;23193;42.656;21.170;2024-01-25T02:41:55;151.13;;;64.32;;
37305;SDS011;23193;42.656;21.170;2024-01-25T02:44:22;163.50;;;65.18;;
37305;SDS011;23193;42.656;21.170;2024-01-25T02:46:49;146.60;;;66.65;;
37305;SDS011;23193;42.656;21.170;2024-01-25T02:49:16;163.13;;;65.70;;
37305;SDS011;23193;42.656;21.170;2024-01-25T02:51:44;142.60;;;59.03;;
37305;SDS011;23193;42.656;21.170;2024-01-25T02:54:11;141.35;;;61.08;;
37305;SDS011;23193;42.656;21.170;2024-01-25T02:56:38;138.35;;;59.08;;
37305;SDS011;23193;42.656;21.170;2024-01-25T02:59:05;124.80;;;54.80;;
37305;SDS011;23193;42.656;21.170;2024-01-25T03:01:39;118.45;;;52.17;;
37305;SDS011;23193;42.656;21.170;2024-01-25T03:04:07;124.80;;;54.35;;
37305;SDS011;23193;42.656;21.170;2024-01-25T03:06:34;124.72;;;51.85;;
37305;SDS011;23193;42.656;21.170;2024-01-25T03:09:02;128.82;;;53.35;;
37305;SDS011;23193;42.656;21.170;2024-01-25T03:11:31;112.97;;;50.58;;
37305;SDS011;23193;42.656;21.170;2024-01-25T03:13:58;121.65;;;50.33;;
37305;SDS011;23193;42.656;21.170;2024-01-25T03:16:26;112.57;;;49.08;;
37305;SDS011;23193;42.656;21.170;2024-01-25T03:18:53;114.13;;;50.67;;
37305;SDS011;23193;42.656;21.170;2024-01-25T03:21:21;110.05;;;46.90;;
37305;SDS011;23193;42.656;21.170;2024-01-25T03:23:48;103.05;;;43.50;;
37305;SDS011;23193;42.656;21.170;2024-01-25T03:26:15;94.22;;;42.25;;
37305;SDS011;23193;42.656;21.170;2024-01-25T03:28:42;95.65;;;43.92;;
37305;SDS011;23193;42.656;21.170;2024-01-25T03:31:09;93.28;;;39.42;;
37305;SDS011;23193;42.656;21.170;2024-01-25T03:33:36;85.82;;;39.10;;
37305;SDS011;23193;42.656;21.170;2024-01-25T03:36:04;87.28;;;40.70;;
37305;SDS011;23193;42.656;21.170;2024-01-25T03:38:31;87.78;;;41.03;;
37305;SDS011;23193;42.656;21.170;2024-01-25T03:40:58;47.08;;;22.95;;
37305;SDS011;23193;42.656;21.170;2024-01-25T03:43:25;59.90;;;23.88;;
37305;SDS011;23193;42.656;21.170;2024-01-25T03:45:59;55.10;;;26.48;;
37305;SDS011;23193;42.656;21.170;2024-01-25T03:48:26;62.55;;;26.73;;
37305;SDS011;23193;42.656;21.170;2024-01-25T03:50:53;58.28;;;26.67;;
37305;SDS011;23193;42.656;21.170;2024-01-25T03:53:23;49.60;;;23.02;;
37305;SDS011;23193;42.656;21.170;2024-01-25T03:55:50;46.92;;;21.15;;
37305;SDS011;23193;42.656;21.170;2024-01-25T03:58:17;46.17;;;24.27;;
37305;SDS011;23193;42.656;21.170;2024-01-25T04:00:47;51.10;;;22.10;;
37305;SDS011;23193;42.656;21.170;2024-01-25T04:03:15;71.82;;;29.77;;
37305;SDS011;23193;42.656;21.170;2024-01-25T04:05:42;76.80;;;32.67;;
37305;SDS011;23193;42.656;21.170;2024-01-25T04:08:09;81.40;;;36.35;;
37305;SDS011;23193;42.656;21.170;2024-01-25T04:10:36;108.93;;;50.83;;
37305;SDS011;23193;42.656;21.170;2024-01-25T04:13:04;73.85;;;31.70;;
37305;SDS011;23193;42.656;21.170;2024-01-25T04:15:31;42.72;;;16.95;;
37305;SDS011;23193;42.656;21.170;2024-01-25T04:17:58;61.55;;;24.27;;
37305;SDS011;23193;42.656;21.170;2024-01-25T04:20:26;26.08;;;12.18;;
37305;SDS011;23193;42.656;21.170;2024-01-25T04:22:53;29.90;;;11.75;;
37305;SDS011;23193;42.656;21.170;2024-01-25T04:25:20;23.80;;;10.52;;
37305;SDS011;23193;42.656;21.170;2024-01-25T04:27:48;23.23;;;9.75;;
37305;SDS011;23193;42.656;21.170;2024-01-25T04:30:15;23.88;;;10.52;;
37305;SDS011;23193;42.656;21.170;2024-01-25T04:32:42;31.13;;;13.25;;
37305;SDS011;23193;42.656;21.170;2024-01-25T04:35:10;26.85;;;12.95;;
37305;SDS011;23193;42.656;21.170;2024-01-25T04:37:37;30.92;;;13.95;;
37305;SDS011;23193;42.656;21.170;2024-01-25T04:40:04;41.80;;;20.42;;
37305;SDS011;23193;42.656;21.170;2024-01-25T04:42:32;40.97;;;16.65;;
37305;SDS011;23193;42.656;21.170;2024-01-25T04:44:59;48.72;;;22.25;;
37305;SDS011;23193;42.656;21.170;2024-01-25T04:47:26;44.40;;;19.17;;
37305;SDS011;23193;42.656;21.170;2024-01-25T04:49:53;42.80;;;18.80;;
37305;SDS011;23193;42.656;21.170;2024-01-25T04:52:20;34.08;;;18.48;;
37305;SDS011;23193;42.656;21.170;2024-01-25T04:54:47;36.95;;;17.15;;
37305;SDS011;23193;42.656;21.170;2024-01-25T04:57:15;35.50;;;16.60;;
37305;SDS011;23193;42.656;21.170;2024-01-25T04:59:42;38.60;;;17.88;;
37305;SDS011;23193;42.656;21.170;2024-01-25T05:02:09;39.83;;;17.33;;
37305;SDS011;23193;42.656;21.170;2024-01-25T05:04:36;43.67;;;19.70;;
37305;SDS011;23193;42.656;21.170;2024-01-25T05:07:03;49.33;;;21.45;;
37305;SDS011;23193;42.656;21.170;2024-01-25T05:09:31;61.35;;;21.15;;
37305;SDS011;23193;42.656;21.170;2024-01-25T05:11:58;49.05;;;19.88;;
37305;SDS011;23193;42.656;21.170;2024-01-25T05:14:28;38.33;;;18.13;;
37305;SDS011;23193;42.656;21.170;2024-01-25T05:16:56;41.55;;;18.08;;
37305;SDS011;23193;42.656;21.170;2024-01-25T05:19:23;36.22;;;16.52;;
37305;SDS011;23193;42.656;21.170;2024-01-25T05:21:51;41.63;;;17.67;;
37305;SDS011;23193;42.656;21.170;2024-01-25T05:24:18;36.92;;;16.45;;
37305;SDS011;23193;42.656;21.170;2024-01-25T05:26:45;38.80;;;16.33;;
37305;SDS011;23193;42.656;21.170;2024-01-25T05:29:12;24.00;;;11.73;;
37305;SDS011;23193;42.656;21.170;2024-01-25T05:31:39;29.75;;;13.57;;
37305;SDS011;23193;42.656;21.170;2024-01-25T05:34:06;26.10;;;13.60;;
37305;SDS011;23193;42.656;21.170;2024-01-25T05:36:33;32.92;;;13.00;;
37305;SDS011;23193;42.656;21.170;2024-01-25T05:39:00;26.30;;;11.65;;
37305;SDS011;23193;42.656;21.170;2024-01-25T05:41:29;23.65;;;9.93;;
37305;SDS011;23193;42.656;21.170;2024-01-25T05:43:57;23.95;;;9.98;;
37305;SDS011;23193;42.656;21.170;2024-01-25T05:46:24;32.58;;;11.40;;
37305;SDS011;23193;42.656;21.170;2024-01-25T05:48:51;20.85;;;10.75;;
37305;SDS011;23193;42.656;21.170;2024-01-25T05:51:18;16.92;;;8.70;;
37305;SDS011;23193;42.656;21.170;2024-01-25T05:53:45;22.98;;;10.38;;
37305;SDS011;23193;42.656;21.170;2024-01-25T05:56:13;30.23;;;11.93;;
37305;SDS011;23193;42.656;21.170;2024-01-25T05:58:40;31.40;;;12.95;;
37305;SDS011;23193;42.656;21.170;2024-01-25T06:01:07;32.42;;;14.25;;
37305;SDS011;23193;42.656;21.170;2024-01-25T06:03:34;28.77;;;13.35;;
37305;SDS011;23193;42.656;21.170;2024-01-25T06:06:01;31.70;;;13.98;;
37305;SDS011;23193;42.656;21.170;2024-01-25T06:08:29;37.05;;;16.38;;
37305;SDS011;23193;42.656;21.170;2024-01-25T06:10:56;39.17;;;17.38;;
37305;SDS011;23193;42.656;21.170;2024-01-25T06:13:24;44.80;;;19.60;;
37305;SDS011;23193;42.656;21.170;2024-01-25T06:15:51;171.20;;;64.68;;
37305;SDS011;23193;42.656;21.170;2024-01-25T06:18:18;114.38;;;42.97;;
37305;SDS011;23193;42.656;21.170;2024-01-25T06:20:49;80.72;;;32.05;;
37305;SDS011;23193;42.656;21.170;2024-01-25T06:23:17;83.28;;;32.55;;
37305;SDS011;23193;42.656;21.170;2024-01-25T06:25:44;76.35;;;31.02;;
37305;SDS011;23193;42.656;21.170;2024-01-25T06:28:11;74.85;;;31.65;;
37305;SDS011;23193;42.656;21.170;2024-01-25T06:30:38;74.90;;;34.45;;
37305;SDS011;23193;42.656;21.170;2024-01-25T06:33:05;82.88;;;35.95;;
37305;SDS011;23193;42.656;21.170;2024-01-25T06:35:32;92.53;;;40.60;;
37305;SDS011;23193;42.656;21.170;2024-01-25T06:38:00;119.70;;;49.38;;
37305;SDS011;23193;42.656;21.170;2024-01-25T06:40:27;214.02;;;85.45;;
37305;SDS011;23193;42.656;21.170;2024-01-25T06:42:54;183.18;;;77.63;;
37305;SDS011;23193;42.656;21.170;2024-01-25T06:45:21;209.07;;;85.18;;
37305;SDS011;23193;42.656;21.170;2024-01-25T06:47:48;226.45;;;98.72;;
37305;SDS011;23193;42.656;21.170;2024-01-25T06:50:16;217.00;;;97.43;;
37305;SDS011;23193;42.656;21.170;2024-01-25T06:52:44;226.77;;;97.75;;
37305;SDS011;23193;42.656;21.170;2024-01-25T06:55:11;164.07;;;70.32;;
37305;SDS011;23193;42.656;21.170;2024-01-25T06:57:38;166.88;;;68.45;;
37305;SDS011;23193;42.656;21.170;2024-01-25T07:00:06;131.32;;;59.08;;
37305;SDS011;23193;42.656;21.170;2024-01-25T07:02:35;127.15;;;55.55;;
37305;SDS011;23193;42.656;21.170;2024-01-25T07:05:03;72.05;;;34.67;;
37305;SDS011;23193;42.656;21.170;2024-01-25T07:07:31;80.18;;;30.98;;
37305;SDS011;23193;42.656;21.170;2024-01-25T07:09:59;105.93;;;35.00;;
37305;SDS011;23193;42.656;21.170;2024-01-25T07:12:27;91.50;;;35.60;;
37305;SDS011;23193;42.656;21.170;2024-01-25T07:14:55;75.47;;;33.42;;
37305;SDS011;23193;42.656;21.170;2024-01-25T07:17:22;71.88;;;31.75;;
37305;SDS011;23193;42.656;21.170;2024-01-25T07:19:50;93.22;;;33.83;;
37305;SDS011;23193;42.656;21.170;2024-01-25T07:22:17;96.53;;;39.97;;
37305;SDS011;23193;42.656;21.170;2024-01-25T07:24:45;148.38;;;62.97;;
37305;SDS011;23193;42.656;21.170;2024-01-25T07:27:12;119.00;;;48.80;;
37305;SDS011;23193;42.656;21.170;2024-01-25T07:29:39;97.53;;;41.63;;
37305;SDS011;23193;42.656;21.170;2024-01-25T07:32:06;91.15;;;41.08;;
37305;SDS011;23193;42.656;21.170;2024-01-25T07:34:34;92.35;;;41.03;;
37305;SDS011;23193;42.656;21.170;2024-01-25T07:37:02;92.75;;;42.70;;
37305;SDS011;23193;42.656;21.170;2024-01-25T07:39:29;110.80;;;48.10;;
37305;SDS011;23193;42.656;21.170;2024-01-25T07:41:57;118.85;;;54.03;;
37305;SDS011;23193;42.656;21.170;2024-01-25T07:44:24;113.80;;;52.60;;
37305;SDS011;23193;42.656;21.170;2024-01-25T07:46:51;121.30;;;50.67;;
37305;SDS011;23193;42.656;21.170;2024-01-25T07:49:18;107.63;;;44.75;;
37305;SDS011;23193;42.656;21.170;2024-01-25T07:51:46;99.82;;;44.22;;
37305;SDS011;23193;42.656;21.170;2024-01-25T07:54:13;124.35;;;57.80;;
37305;SDS011;23193;42.656;21.170;2024-01-25T07:56:41;114.32;;;48.53;;
37305;SDS011;23193;42.656;21.170;2024-01-25T07:59:08;80.25;;;34.95;;
37305;SDS011;23193;42.656;21.170;2024-01-25T08:01:35;80.88;;;36.30;;
37305;SDS011;23193;42.656;21.170;2024-01-25T08:04:02;83.80;;;34.72;;
37305;SDS011;23193;42.656;21.170;2024-01-25T08:06:30;84.63;;;37.75;;
37305;SDS011;23193;42.656;21.170;2024-01-25T08:08:57;88.20;;;42.67;;
37305;SDS011;23193;42.656;21.170;2024-01-25T08:11:25;77.55;;;34.00;;
37305;SDS011;23193;42.656;21.170;2024-01-25T08:13:52;79.63;;;39.80;;
37305;SDS011;23193;42.656;21.170;2024-01-25T08:16:19;68.20;;;30.80;;
37305;SDS011;23193;42.656;21.170;2024-01-25T08:18:47;71.07;;;33.58;;
37305;SDS011;23193;42.656;21.170;2024-01-25T08:21:16;94.22;;;38.38;;
37305;SDS011;23193;42.656;21.170;2024-01-25T08:23:44;95.43;;;36.13;;
37305;SDS011;23193;42.656;21.170;2024-01-25T08:26:11;66.97;;;27.45;;
37305;SDS011;23193;42.656;21.170;2024-01-25T08:28:39;187.48;;;96.47;;
37305;SDS011;23193;42.656;21.170;2024-01-25T08:31:07;116.30;;;51.92;;
37305;SDS011;23193;42.656;21.170;2024-01-25T08:33:34;70.60;;;29.98;;
37305;SDS011;23193;42.656;21.170;2024-01-25T08:36:01;69.88;;;26.77;;
37305;SDS011;23193;42.656;21.170;2024-01-25T08:38:29;52.70;;;22.42;;
37305;SDS011;23193;42.656;21.170;2024-01-25T08:40:56;48.55;;;24.73;;
37305;SDS011;23193;42.656;21.170;2024-01-25T08:43:23;38.90;;;18.92;;
37305;SDS011;23193;42.656;21.170;2024-01-25T08:45:50;49.47;;;19.77;;
37305;SDS011;23193;42.656;21.170;2024-01-25T08:48:18;51.80;;;23.33;;
37305;SDS011;23193;42.656;21.170;2024-01-25T08:50:45;57.10;;;23.65;;
37305;SDS011;23193;42.656;21.170;2024-01-25T08:53:12;51.05;;;24.88;;
37305;SDS011;23193;42.656;21.170;2024-01-25T08:55:39;71.38;;;33.95;;
37305;SDS011;23193;42.656;21.170;2024-01-25T08:58:06;90.88;;;42.33;;
37305;SDS011;23193;42.656;21.170;2024-01-25T09:00:33;99.32;;;49.22;;
37305;SDS011;23193;42.656;21.170;2024-01-25T09:03:01;117.25;;;55.92;;
37305;SDS011;23193;42.656;21.170;2024-01-25T09:05:28;123.00;;;60.97;;
37305;SDS011;23193;42.656;21.170;2024-01-25T09:07:55;156.50;;;79.55;;
37305;SDS011;23193;42.656;21.170;2024-01-25T09:10:22;143.10;;;73.03;;
37305;SDS011;23193;42.656;21.170;2024-01-25T09:12:49;123.15;;;61.97;;
37305;SDS011;23193;42.656;21.170;2024-01-25T09:15:17;123.82;;;60.40;;
37305;SDS011;23193;42.656;21.170;2024-01-25T09:17:45;126.97;;;64.82;;
37305;SDS011;23193;42.656;21.170;2024-01-25T09:20:12;137.93;;;67.50;;
37305;SDS011;23193;42.656;21.170;2024-01-25T09:22:40;152.48;;;74.13;;
37305;SDS011;23193;42.656;21.170;2024-01-25T09:25:07;165.00;;;77.05;;
37305;SDS011;23193;42.656;21.170;2024-01-25T09:27:36;148.52;;;72.35;;
37305;SDS011;23193;42.656;21.170;2024-01-25T09:30:05;140.27;;;69.32;;
37305;SDS011;23193;42.656;21.170;2024-01-25T09:32:33;121.18;;;60.90;;
37305;SDS011;23193;42.656;21.170;2024-01-25T09:35:01;120.50;;;58.30;;
37305;SDS011;23193;42.656;21.170;2024-01-25T09:37:28;106.22;;;52.42;;
37305;SDS011;23193;42.656;21.170;2024-01-25T09:39:57;80.88;;;39.88;;
37305;SDS011;23193;42.656;21.170;2024-01-25T09:42:26;77.10;;;35.30;;
37305;SDS011;23193;42.656;21.170;2024-01-25T09:44:53;36.97;;;15.48;;
37305;SDS011;23193;42.656;21.170;2024-01-25T09:47:21;37.53;;;17.73;;
37305;SDS011;23193;42.656;21.170;2024-01-25T09:49:48;34.58;;;17.02;;
37305;SDS011;23193;42.656;21.170;2024-01-25T09:52:16;30.92;;;15.00;;
37305;SDS011;23193;42.656;21.170;2024-01-25T09:54:43;40.75;;;15.90;;
37305;SDS011;23193;42.656;21.170;2024-01-25T09:57:14;36.03;;;16.90;;
37305;SDS011;23193;42.656;21.170;2024-01-25T09:59:44;35.58;;;14.32;;
37305;SDS011;23193;42.656;21.170;2024-01-25T10:02:12;39.72;;;15.85;;
37305;SDS011;23193;42.656;21.170;2024-01-25T10:04:39;32.53;;;15.80;;
37305;SDS011;23193;42.656;21.170;2024-01-25T10:07:07;35.83;;;17.77;;
37305;SDS011;23193;42.656;21.170;2024-01-25T10:09:40;39.20;;;17.38;;
37305;SDS011;23193;42.656;21.170;2024-01-25T10:12:08;36.38;;;18.15;;
37305;SDS011;23193;42.656;21.170;2024-01-25T10:14:45;43.35;;;18.67;;
37305;SDS011;23193;42.656;21.170;2024-01-25T10:17:12;34.65;;;16.13;;
37305;SDS011;23193;42.656;21.170;2024-01-25T10:19:42;42.78;;;16.85;;
37305;SDS011;23193;42.656;21.170;2024-01-25T10:22:11;36.28;;;13.88;;
37305;SDS011;23193;42.656;21.170;2024-01-25T10:24:41;36.70;;;15.23;;
37305;SDS011;23193;42.656;21.170;2024-01-25T10:27:10;30.00;;;13.30;;
37305;SDS011;23193;42.656;21.170;2024-01-25T10:29:37;27.02;;;11.77;;
37305;SDS011;23193;42.656;21.170;2024-01-25T10:32:05;32.17;;;14.00;;
37305;SDS011;23193;42.656;21.170;2024-01-25T10:34:34;27.00;;;14.15;;
37305;SDS011;23193;42.656;21.170;2024-01-25T10:37:06;31.33;;;13.77;;
37305;SDS011;23193;42.656;21.170;2024-01-25T10:39:34;46.25;;;15.82;;
37305;SDS011;23193;42.656;21.170;2024-01-25T10:42:01;31.52;;;14.13;;
37305;SDS011;23193;42.656;21.170;2024-01-25T10:44:29;29.63;;;14.50;;
37305;SDS011;23193;42.656;21.170;2024-01-25T10:46:56;32.05;;;15.10;;
37305;SDS011;23193;42.656;21.170;2024-01-25T10:49:24;37.40;;;18.77;;
37305;SDS011;23193;42.656;21.170;2024-01-25T10:51:51;45.72;;;19.75;;
37305;SDS011;23193;42.656;21.170;2024-01-25T10:54:19;36.55;;;16.70;;
37305;SDS011;23193;42.656;21.170;2024-01-25T10:56:46;33.90;;;17.73;;
37305;SDS011;23193;42.656;21.170;2024-01-25T10:59:16;39.33;;;19.02;;
37305;SDS011;23193;42.656;21.170;2024-01-25T11:01:44;40.28;;;19.45;;
37305;SDS011;23193;42.656;21.170;2024-01-25T11:04:12;39.67;;;18.50;;
37305;SDS011;23193;42.656;21.170;2024-01-25T11:06:40;47.72;;;22.23;;
37305;SDS011;23193;42.656;21.170;2024-01-25T11:09:07;43.45;;;21.67;;
37305;SDS011;23193;42.656;21.170;2024-01-25T11:11:37;39.33;;;18.63;;
37305;SDS011;23193;42.656;21.170;2024-01-25T11:14:11;29.80;;;13.55;;
37305;SDS011;23193;42.656;21.170;2024-01-25T11:16:38;27.20;;;13.85;;
37305;SDS011;23193;42.656;21.170;2024-01-25T11:19:09;24.50;;;12.55;;
37305;SDS011;23193;42.656;21.170;2024-01-25T11:21:43;25.80;;;11.73;;
37305;SDS011;23193;42.656;21.170;2024-01-25T11:24:15;28.20;;;13.85;;
37305;SDS011;23193;42.656;21.170;2024-01-25T11:29:09;19.52;;;9.02;;
37305;SDS011;23193;42.656;21.170;2024-01-25T11:31:36;16.80;;;7.82;;
37305;SDS011;23193;42.656;21.170;2024-01-25T11:34:03;16.75;;;6.38;;
37305;SDS011;23193;42.656;21.170;2024-01-25T11:36:30;16.23;;;7.15;;
37305;SDS011;23193;42.656;21.170;2024-01-25T11:38:58;24.27;;;7.85;;
37305;SDS011;23193;42.656;21.170;2024-01-25T11:41:25;16.10;;;7.18;;
37305;SDS011;23193;42.656;21.170;2024-01-25T11:43:52;21.77;;;9.82;;
37305;SDS011;23193;42.656;21.170;2024-01-25T11:46:20;18.92;;;7.70;;
37305;SDS011;23193;42.656;21.170;2024-01-25T11:48:47;21.63;;;9.63;;
37305;SDS011;23193;42.656;21.170;2024-01-25T11:51:14;29.20;;;10.32;;
37305;SDS011;23193;42.656;21.170;2024-01-25T11:53:42;16.23;;;6.68;;
37305;SDS011;23193;42.656;21.170;2024-01-25T11:56:14;18.05;;;9.77;;
37305;SDS011;23193;42.656;21.170;2024-01-25T11:58:44;24.33;;;8.10;;
37305;SDS011;23193;42.656;21.170;2024-01-25T12:01:12;16.05;;;8.13;;
37305;SDS011;23193;42.656;21.170;2024-01-25T12:03:40;22.83;;;9.68;;
37305;SDS011;23193;42.656;21.170;2024-01-25T12:06:07;14.90;;;7.75;;
37305;SDS011;23193;42.656;21.170;2024-01-25T12:08:38;17.95;;;8.50;;
37305;SDS011;23193;42.656;21.170;2024-01-25T12:11:08;17.42;;;7.82;;
37305;SDS011;23193;42.656;21.170;2024-01-25T12:13:39;20.48;;;8.73;;
37305;SDS011;23193;42.656;21.170;2024-01-25T12:16:07;16.83;;;8.45;;
37305;SDS011;23193;42.656;21.170;2024-01-25T12:18:34;15.85;;;8.38;;
37305;SDS011;23193;42.656;21.170;2024-01-25T12:21:03;15.65;;;9.07;;
37305;SDS011;23193;42.656;21.170;2024-01-25T12:23:31;14.50;;;8.05;;
37305;SDS011;23193;42.656;21.170;2024-01-25T12:25:59;19.60;;;8.43;;
37305;SDS011;23193;42.656;21.170;2024-01-25T12:28:27;23.23;;;8.52;;
37305;SDS011;23193;42.656;21.170;2024-01-25T12:30:55;23.83;;;9.77;;
37305;SDS011;23193;42.656;21.170;2024-01-25T12:33:22;19.70;;;9.70;;
37305;SDS011;23193;42.656;21.170;2024-01-25T12:35:54;25.17;;;11.45;;
37305;SDS011;23193;42.656;21.170;2024-01-25T12:38:21;37.15;;;17.85;;
37305;SDS011;23193;42.656;21.170;2024-01-25T12:40:49;27.08;;;11.40;;
37305;SDS011;23193;42.656;21.170;2024-01-25T12:43:18;18.05;;;9.02;;
37305;SDS011;23193;42.656;21.170;2024-01-25T12:45:46;19.48;;;8.82;;
37305;SDS011;23193;42.656;21.170;2024-01-25T12:48:14;24.13;;;10.85;;
37305;SDS011;23193;42.656;21.170;2024-01-25T12:50:41;26.88;;;12.13;;
37305;SDS011;23193;42.656;21.170;2024-01-25T12:53:10;41.88;;;22.40;;
37305;SDS011;23193;42.656;21.170;2024-01-25T12:55:37;25.02;;;13.43;;
37305;SDS011;23193;42.656;21.170;2024-01-25T12:58:05;19.58;;;7.57;;
37305;SDS011;23193;42.656;21.170;2024-01-25T13:00:32;19.35;;;6.97;;
37305;SDS011;23193;42.656;21.170;2024-01-25T13:03:00;19.30;;;7.55;;
37305;SDS011;23193;42.656;21.170;2024-01-25T13:05:30;16.75;;;6.80;;
37305;SDS011;23193;42.656;21.170;2024-01-25T13:08:02;18.77;;;6.13;;
37305;SDS011;23193;42.656;21.170;2024-01-25T13:10:29;18.85;;;6.32;;
37305;SDS011;23193;42.656;21.170;2024-01-25T13:12:57;18.48;;;6.28;;
37305;SDS011;23193;42.656;21.170;2024-01-25T13:15:24;17.58;;;6.18;;
37305;SDS011;23193;42.656;21.170;2024-01-25T13:17:51;16.33;;;7.30;;
37305;SDS011;23193;42.656;21.170;2024-01-25T13:20:18;13.60;;;4.85;;
37305;SDS011;23193;42.656;21.170;2024-01-25T13:22:45;21.85;;;6.65;;
37305;SDS011;23193;42.656;21.170;2024-01-25T13:25:12;24.83;;;6.80;;
37305;SDS011;23193;42.656;21.170;2024-01-25T13:27:42;12.85;;;5.40;;
37305;SDS011;23193;42.656;21.170;2024-01-25T13:30:09;16.55;;;8.30;;
37305;SDS011;23193;42.656;21.170;2024-01-25T13:32:39;14.18;;;5.15;;
37305;SDS011;23193;42.656;21.170;2024-01-25T13:35:06;14.13;;;5.32;;
37305;SDS011;23193;42.656;21.170;2024-01-25T13:37:33;16.50;;;5.75;;
37305;SDS011;23193;42.656;21.170;2024-01-25T13:40:01;15.88;;;5.00;;
37305;SDS011;23193;42.656;21.170;2024-01-25T13:42:28;10.57;;;5.80;;
37305;SDS011;23193;42.656;21.170;2024-01-25T13:44:55;18.92;;;7.43;;
37305;SDS011;23193;42.656;21.170;2024-01-25T13:47:22;10.85;;;4.43;;
37305;SDS011;23193;42.656;21.170;2024-01-25T13:49:51;15.63;;;8.55;;
37305;SDS011;23193;42.656;21.170;2024-01-25T13:52:18;13.55;;;7.82;;
37305;SDS011;23193;42.656;21.170;2024-01-25T13:54:49;22.55;;;10.00;;
37305;SDS011;23193;42.656;21.170;2024-01-25T13:57:17;30.20;;;12.65;;
37305;SDS011;23193;42.656;21.170;2024-01-25T13:59:44;15.95;;;10.10;;
37305;SDS011;23193;42.656;21.170;2024-01-25T14:02:11;11.88;;;6.93;;
37305;SDS011;23193;42.656;21.170;2024-01-25T14:04:38;13.82;;;7.30;;
37305;SDS011;23193;42.656;21.170;2024-01-25T14:07:16;14.18;;;6.93;;
37305;SDS011;23193;42.656;21.170;2024-01-25T14:09:46;24.05;;;10.68;;
37305;SDS011;23193;42.656;21.170;2024-01-25T14:12:18;17.88;;;10.15;;